createdAt,value
2018-02-22T00:08:02.091Z,8.03
2018-02-22T00:18:05.453Z,9.93
2018-02-22T00:28:08.874Z,8.67
2018-02-22T00:38:12.310Z,9.17
2018-02-22T00:48:15.666Z,8.43
2018-02-22T00:58:19.005Z,9.17
2018-02-22T01:08:23.190Z,8.10
2018-02-22T01:18:26.541Z,9.17
2018-02-22T01:28:29.958Z,8.07
2018-02-22T01:38:33.314Z,8.47
2018-02-22T01:48:36.683Z,8.90
2018-02-22T01:58:40.787Z,8.43
2018-02-22T02:08:44.892Z,8.60
2018-02-22T02:18:49.013Z,8.77
2018-02-22T02:28:53.127Z,7.90
2018-02-22T02:38:57.316Z,8.00
2018-02-22T02:49:00.624Z,9.00
2018-02-22T02:59:03.920Z,8.90
2018-02-22T03:09:07.220Z,8.53
2018-02-22T03:19:10.505Z,8.97
2018-02-22T03:29:13.801Z,8.70
2018-02-22T03:39:17.088Z,8.63
2018-02-22T03:49:20.381Z,8.50
2018-02-22T03:59:23.679Z,9.07
2018-02-22T04:09:26.966Z,9.03
2018-02-22T04:19:30.251Z,8.60
2018-02-22T04:29:33.543Z,8.03
2018-02-22T04:39:36.820Z,9.03
2018-02-22T04:49:40.105Z,9.00
2018-02-22T04:59:43.397Z,8.93
2018-02-22T05:09:46.684Z,8.70
2018-02-22T05:19:49.976Z,10.10
2018-02-22T05:29:53.261Z,8.63
2018-02-22T05:39:56.543Z,8.77
2018-02-22T05:49:59.824Z,9.00
2018-02-22T06:00:03.117Z,9.53
2018-02-22T06:10:07.167Z,8.50
2018-02-22T06:20:10.448Z,8.23
2018-02-22T06:30:13.735Z,8.83
2018-02-22T06:40:17.025Z,9.10
2018-02-22T06:50:20.325Z,8.97
2018-02-22T07:00:23.614Z,8.27
2018-02-22T07:10:26.900Z,8.53
2018-02-22T07:20:30.216Z,29.20
2018-02-22T07:30:33.504Z,24.37
2018-02-22T07:40:36.804Z,23.73
2018-02-22T07:50:40.094Z,26.00
2018-02-22T08:00:43.382Z,22.83
2018-02-22T08:10:46.680Z,22.60
2018-02-22T08:20:49.976Z,21.90
2018-02-22T08:30:54.036Z,22.73
2018-02-22T08:40:57.324Z,22.53
2018-02-22T08:51:00.609Z,15.60
2018-02-22T09:01:03.895Z,16.33
2018-02-22T09:11:07.190Z,14.63
2018-02-22T09:21:10.462Z,13.40
2018-02-22T09:31:13.747Z,12.57
2018-02-22T09:41:17.032Z,11.90
2018-02-22T09:51:20.312Z,11.27
2018-02-22T10:01:23.601Z,12.10
2018-02-22T10:11:26.887Z,11.37
2018-02-22T10:21:30.168Z,10.77
2018-02-22T10:31:34.236Z,10.20
2018-02-22T10:41:37.523Z,10.43
2018-02-22T10:51:40.808Z,8.67
2018-02-22T11:01:49.692Z,8.87
2018-02-22T11:11:52.984Z,8.77
2018-02-22T11:21:56.252Z,7.97
2018-02-22T11:32:00.300Z,8.73
2018-02-22T11:42:03.581Z,7.57
2018-02-22T11:52:06.870Z,10.67
2018-02-22T12:02:10.156Z,8.40
2018-02-22T12:12:13.461Z,9.67
2018-02-22T12:22:16.782Z,9.30
2018-02-22T12:32:20.034Z,8.80
2018-02-22T12:42:23.317Z,7.80
2018-02-22T12:52:26.600Z,9.20
2018-02-22T13:12:38.440Z,8.93
2018-02-22T13:22:41.733Z,9.83
2018-02-22T13:32:56.781Z,9.80
2018-02-22T13:43:00.111Z,9.03
2018-02-22T13:53:03.402Z,10.00
2018-02-22T14:03:06.676Z,10.53
2018-02-22T14:13:09.972Z,10.53
2018-02-22T14:23:13.257Z,9.93
2018-02-22T14:33:16.536Z,10.30
2018-02-22T14:43:19.828Z,10.93
2018-02-22T14:53:23.116Z,11.07
2018-02-22T15:03:26.417Z,11.10
2018-02-22T15:13:29.712Z,11.67
2018-02-22T15:23:33.773Z,12.00
2018-02-22T15:33:37.074Z,10.97
2018-02-22T15:43:40.366Z,11.77
2018-02-22T15:53:43.652Z,9.10
2018-02-22T16:03:46.930Z,9.70
2018-02-22T16:13:50.243Z,12.55
2018-02-22T16:23:53.544Z,11.00
2018-02-22T16:33:56.816Z,9.50
2018-02-22T16:44:00.100Z,9.50
2018-02-22T16:54:03.392Z,10.57
2018-02-22T17:04:06.674Z,10.10
2018-02-22T17:14:09.957Z,9.80
2018-02-22T17:24:11.251Z,9.73
2018-02-22T17:34:12.533Z,11.90
2018-02-22T17:44:13.801Z,8.80
2018-02-22T17:54:15.138Z,8.40
2018-02-22T18:04:16.443Z,8.30
2018-02-22T18:14:17.673Z,7.87
2018-02-22T18:24:19.657Z,8.00
2018-02-22T18:34:20.949Z,7.90
2018-02-22T18:44:28.346Z,8.43
2018-02-22T18:54:29.561Z,8.70
2018-02-22T19:04:30.776Z,7.07
2018-02-22T19:14:32.037Z,6.97
2018-02-22T19:24:33.293Z,10.37
2018-02-22T19:34:34.517Z,11.70
2018-02-22T19:44:35.728Z,8.70
2018-02-22T19:54:36.968Z,9.13
2018-02-22T20:04:38.185Z,8.80
2018-02-22T20:14:39.406Z,9.10
2018-02-22T20:24:40.677Z,9.57
2018-02-22T20:34:41.942Z,9.13
2018-02-22T20:44:43.192Z,9.90
2018-02-22T21:05:32.459Z,9.63
2018-02-22T21:15:34.980Z,9.50
2018-02-22T21:25:37.516Z,10.83
2018-02-22T21:35:40.809Z,9.00
2018-02-22T21:45:44.113Z,8.63
2018-02-22T21:55:46.741Z,9.60
2018-02-22T22:05:49.283Z,10.13
2018-02-22T22:15:51.808Z,9.17
2018-02-22T22:25:55.111Z,11.20
2018-02-22T22:35:58.409Z,11.47
2018-02-22T22:46:00.940Z,11.13
2018-02-22T22:56:03.472Z,10.27
2018-02-22T23:06:06.010Z,9.83
2018-02-22T23:16:09.312Z,9.23
2018-02-22T23:26:11.843Z,8.80
2018-02-22T23:36:18.879Z,9.80
2018-02-22T23:46:21.429Z,10.10
2018-02-22T23:56:23.973Z,11.10
